Time;durP1;ratioP1;P1;durP2;ratioP2;P2;SDS_P1;SDS_P2;PMS_P1;PMS_P2;Temp;Humidity;BMP_temperature;BMP_pressure;BME280_temperature;BME280_humidity;BME280_pressure;Samples;Min_cycle;Max_cycle;Signal;HPM_P1;HPM_P2
2022/08/01 00:03:21;;;;;;;8.23;4.00;;;;;;;18.62;68.96;100209.28;3644446;79;98859;-83
2022/08/01 00:08:22;;;;;;;10.63;3.90;;;;;;;18.57;68.96;100206.42;3658587;79;33208;-83
2022/08/01 00:13:23;;;;;;;9.13;3.53;;;;;;;18.50;69.15;100205.21;3667008;78;99017;-85
2022/08/01 00:18:24;;;;;;;7.77;3.77;;;;;;;18.36;69.42;100199.20;3684241;78;98734;-86
2022/08/01 00:23:25;;;;;;;7.07;3.00;;;;;;;18.36;69.96;100193.00;3684033;78;98851;-85
2022/08/01 00:28:26;;;;;;;6.28;2.75;;;;;;;18.34;70.17;100186.30;3695517;78;98727;-86
2022/08/01 00:33:27;;;;;;;5.57;3.00;;;;;;;18.30;70.24;100182.77;3692223;78;98842;-86
2022/08/01 00:38:29;;;;;;;7.13;3.07;;;;;;;18.29;70.42;100188.17;3695269;78;26682;-85
2022/08/01 00:43:30;;;;;;;10.50;3.70;;;;;;;18.26;70.61;100178.69;3688400;78;98649;-87
2022/08/01 00:48:31;;;;;;;6.77;3.40;;;;;;;18.18;70.71;100175.91;3679242;78;98464;-86
2022/08/01 00:53:32;;;;;;;5.03;2.60;;;;;;;18.16;71.06;100178.33;3691119;78;98855;-86
2022/08/01 00:58:33;;;;;;;6.90;3.13;;;;;;;18.15;71.38;100175.38;3694835;78;98787;-85
2022/08/01 01:03:34;;;;;;;6.87;3.40;;;;;;;18.17;71.24;100181.91;3689069;78;98745;-86
2022/08/01 01:08:43;;;;;;;6.47;3.37;;;;;;;18.11;71.53;100187.83;3696485;78;26825;-87
2022/08/01 01:13:52;;;;;;;5.87;3.08;;;;;;;18.08;71.88;100174.75;3671708;78;98807;-85
2022/08/01 01:18:58;;;;;;;8.13;2.98;;;;;;;18.05;71.72;100179.19;3664432;79;98769;-86
2022/08/01 01:24:13;;;;;;;6.20;3.20;;;;;;;18.03;72.18;100176.06;3656255;79;98730;-85
2022/08/01 01:29:19;;;;;;;5.83;3.23;;;;;;;18.05;72.34;100165.88;3654211;79;98878;-86
2022/08/01 01:34:21;;;;;;;;;;;;;;;18.02;72.37;100159.18;3668237;79;98794;-85
2022/08/01 01:39:26;;;;;;;5.97;3.83;;;;;;;18.05;73.49;100156.91;3655301;79;84235;-85
2022/08/01 01:44:28;;;;;;;7.87;4.60;;;;;;;18.06;72.57;100167.45;3644127;79;98298;-85
2022/08/01 01:49:30;;;;;;;9.38;4.60;;;;;;;18.00;72.17;100158.84;3663669;79;98664;-86
2022/08/01 01:54:39;;;;;;;8.53;4.78;;;;;;;17.96;72.54;100160.12;3651815;79;98753;-86
2022/08/01 01:59:42;;;;;;;9.28;5.22;;;;;;;17.93;72.54;100156.20;3657321;79;98884;-84
2022/08/01 02:04:45;;;;;;;10.10;4.72;;;;;;;17.91;72.53;100156.45;3634526;79;99210;-85
2022/08/01 02:09:47;;;;;;;11.63;5.50;;;;;;;17.86;72.90;100154.98;3661583;79;98947;-86
2022/08/01 02:14:53;;;;;;;8.15;4.45;;;;;;;17.83;72.95;100150.89;3652148;79;98904;-85
2022/08/01 02:19:54;;;;;;;11.63;3.95;;;;;;;17.78;73.12;100151.39;3658269;79;99923;-85
2022/08/01 02:25:11;;;;;;;8.60;3.85;;;;;;;17.81;73.66;100143.55;3663374;79;98763;-85
2022/08/01 02:30:14;;;;;;;6.20;3.25;;;;;;;17.83;73.64;100143.92;3594087;80;98683;-85
2022/08/01 02:35:29;;;;;;;6.25;3.37;;;;;;;17.85;73.62;100145.06;3605754;80;98844;-85
2022/08/01 02:40:34;;;;;;;7.40;3.50;;;;;;;17.87;73.85;100139.84;3593792;80;98751;-85
2022/08/01 02:45:39;;;;;;;7.70;3.83;;;;;;;17.89;73.83;100131.05;3612956;80;98862;-86
2022/08/01 02:50:45;;;;;;;8.60;4.00;;;;;;;17.89;73.97;100130.46;3601945;80;98872;-86
2022/08/01 02:55:47;;;;;;;7.40;4.12;;;;;;;17.95;73.83;100126.53;3602270;80;26746;-85
2022/08/01 03:00:48;;;;;;;6.58;3.83;;;;;;;17.98;74.02;100128.47;3594897;80;98682;-85
2022/08/01 03:05:49;;;;;;;8.30;3.90;;;;;;;17.96;74.02;100121.94;3599902;80;98740;-86
2022/08/01 03:10:52;;;;;;;9.70;3.80;;;;;;;17.97;74.16;100117.92;3593710;80;98974;-85
2022/08/01 03:15:55;;;;;;;7.22;3.80;;;;;;;17.99;74.04;100121.05;3620579;80;98729;-86
2022/08/01 03:20:59;;;;;;;6.12;3.80;;;;;;;18.02;74.25;100117.41;3604467;80;98854;-87
2022/08/01 03:26:02;;;;;;;8.63;4.47;;;;;;;18.07;74.15;100110.52;3594403;80;32983;-86
2022/08/01 03:31:03;;;;;;;6.97;3.92;;;;;;;18.09;74.19;100106.72;3589310;80;99004;-85
2022/08/01 03:36:08;;;;;;;8.87;4.53;;;;;;;18.08;74.19;100103.73;3609095;80;98826;-86
2022/08/01 03:41:17;;;;;;;7.93;3.23;;;;;;;18.07;74.20;100096.00;3553111;81;98944;-87
2022/08/01 03:46:22;;;;;;;8.25;4.42;;;;;;;18.08;74.26;100095.38;3591963;81;98864;-85
2022/08/01 03:51:24;;;;;;;7.70;4.00;;;;;;;18.13;74.19;100093.46;3525801;81;98989;-86
2022/08/01 03:56:27;;;;;;;8.68;4.00;;;;;;;18.17;74.22;100097.75;3589306;81;32954;-86
2022/08/01 04:01:29;;;;;;;7.03;4.03;;;;;;;18.18;74.18;100094.33;3631156;79;98590;-87
2022/08/01 04:06:30;;;;;;;8.10;3.87;;;;;;;18.22;74.09;100102.00;3630483;79;98629;-85
2022/08/01 04:11:31;;;;;;;9.73;3.87;;;;;;;18.25;74.08;100094.17;3643446;79;99236;-85
2022/08/01 04:16:32;;;;;;;6.53;3.67;;;;;;;18.26;74.16;100093.72;3653621;80;99204;-86
2022/08/01 04:21:34;;;;;;;7.47;3.83;;;;;;;18.29;74.06;100089.28;3581738;80;99111;-86
2022/08/01 04:26:38;;;;;;;6.97;4.15;;;;;;;18.37;74.09;100099.83;3574631;80;32949;-87
2022/08/01 04:31:42;;;;;;;8.50;5.00;;;;;;;18.41;74.03;100089.39;3542691;81;98905;-85
2022/08/01 04:36:46;;;;;;;10.30;4.95;;;;;;;18.47;74.02;100092.44;3544539;81;98699;-85
2022/08/01 04:41:48;;;;;;;9.75;4.37;;;;;;;18.49;73.94;100092.17;3528263;80;98907;-83
2022/08/01 04:46:54;;;;;;;7.92;4.10;;;;;;;18.53;73.92;100094.23;3527085;81;98843;-83
2022/08/01 04:51:57;;;;;;;11.12;4.55;;;;;;;18.59;73.82;100091.71;3557068;80;98558;-87
2022/08/01 04:56:59;;;;;;;13.85;4.97;;;;;;;18.66;73.92;100087.33;3575025;80;98934;-86
2022/08/01 05:02:00;;;;;;;7.28;4.40;;;;;;;18.70;73.88;100088.03;3565668;81;98903;-85
2022/08/01 05:07:02;;;;;;;9.07;4.40;;;;;;;18.74;73.78;100089.48;3566170;80;98715;-87
2022/08/01 05:12:05;;;;;;;9.33;4.62;;;;;;;18.79;73.79;100095.13;3616430;79;98893;-89
2022/08/01 05:17:08;;;;;;;10.28;4.90;;;;;;;18.82;73.54;100099.84;3612331;80;98899;-85
2022/08/01 05:22:10;;;;;;;10.15;4.45;;;;;;;18.84;73.47;100096.78;3582058;80;98982;-85
2022/08/01 05:27:11;;;;;;;8.40;4.53;;;;;;;18.85;73.69;100095.55;3573941;80;98121;-86
2022/08/01 05:32:12;;;;;;;9.63;4.73;;;;;;;18.92;73.64;100089.77;3553704;82;98569;-86
2022/08/01 05:37:13;;;;;;;10.03;5.47;;;;;;;18.98;73.68;100083.84;3561170;82;98706;-86
2022/08/01 05:42:14;;;;;;;11.70;5.30;;;;;;;19.04;73.57;100086.86;3540217;81;98794;-86
2022/08/01 05:47:15;;;;;;;10.50;5.37;;;;;;;19.10;73.50;100108.20;3555048;82;99502;-85
2022/08/01 05:52:16;;;;;;;9.30;4.97;;;;;;;19.05;73.38;100082.23;3549116;81;98960;-86
2022/08/01 05:57:17;;;;;;;11.43;5.30;;;;;;;19.18;73.20;100104.59;3566740;80;98788;-87
2022/08/01 06:02:19;;;;;;;14.73;5.63;;;;;;;19.21;73.14;100099.51;3553137;82;98674;-86
2022/08/01 06:07:19;;;;;;;12.10;5.57;;;;;;;19.27;73.01;100106.14;3549257;82;98769;-85
2022/08/01 06:12:20;;;;;;;11.67;5.77;;;;;;;19.33;73.03;100106.55;3550995;82;98834;-87
2022/08/01 06:17:21;;;;;;;11.17;6.10;;;;;;;19.34;73.24;100101.77;3548029;81;98054;-88
2022/08/01 06:22:22;;;;;;;9.10;5.85;;;;;;;19.34;73.50;100110.90;3567848;81;99061;-85
2022/08/01 06:27:25;;;;;;;11.43;6.40;;;;;;;19.39;73.51;100103.38;3541183;80;98888;-86
2022/08/01 06:32:26;;;;;;;9.98;5.60;;;;;;;19.42;73.59;100104.50;3534783;82;98623;-88
2022/08/01 06:37:31;;;;;;;10.03;6.12;;;;;;;19.52;73.35;100111.77;3531673;82;98609;-85
2022/08/01 06:42:35;;;;;;;14.85;6.62;;;;;;;19.53;73.59;100104.36;3552284;80;98810;-88
2022/08/01 06:47:37;;;;;;;12.00;6.83;;;;;;;19.56;73.46;100108.27;3551595;82;98951;-88
2022/08/01 06:52:38;;;;;;;11.70;7.08;;;;;;;19.65;73.34;100113.36;3544056;81;98911;-89
2022/08/01 06:57:52;;;;;;;11.33;6.40;;;;;;;19.67;73.49;100119.89;3557712;82;98905;-88
2022/08/01 07:02:56;;;;;;;12.98;6.53;;;;;;;19.71;73.47;100124.13;3534968;82;98979;-87
2022/08/01 07:07:57;;;;;;;12.30;7.37;;;;;;;19.76;73.54;100125.58;3563492;80;31657;-86
2022/08/01 07:12:59;;;;;;;12.60;7.25;;;;;;;19.75;73.68;100108.66;3532292;82;98764;-84
2022/08/01 07:18:03;;;;;;;12.17;7.87;;;;;;;19.80;73.82;100123.47;3562699;81;98912;-85
2022/08/01 07:23:03;;;;;;;13.22;8.05;;;;;;;19.88;74.01;100120.00;3562485;81;99143;-84
2022/08/01 07:28:04;;;;;;;10.90;7.58;;;;;;;20.10;74.00;100119.52;3563320;81;98919;-86
2022/08/01 07:33:05;;;;;;;13.03;8.58;;;;;;;20.25;73.61;100122.02;3572552;81;98914;-85
2022/08/01 07:38:07;;;;;;;10.93;7.05;;;;;;;20.42;73.30;100120.64;3560114;80;31758;-86
2022/08/01 07:43:08;;;;;;;11.63;7.35;;;;;;;20.59;72.93;100125.48;3560644;81;99273;-85
2022/08/01 07:48:09;;;;;;;10.72;7.58;;;;;;;20.68;72.58;100118.55;3570850;81;98742;-88
2022/08/01 07:53:10;;;;;;;12.63;8.83;;;;;;;20.72;72.27;100123.41;3555802;81;99093;-85
2022/08/01 07:58:11;;;;;;;13.08;7.53;;;;;;;20.79;72.08;100122.55;3548841;80;99092;-84
2022/08/01 08:03:12;;;;;;;11.48;7.65;;;;;;;20.79;71.94;100132.34;3549856;81;99006;-87
2022/08/01 08:08:15;;;;;;;10.28;6.97;;;;;;;20.88;71.93;100135.20;3554522;80;31789;-86
2022/08/01 08:13:16;;;;;;;11.55;8.05;;;;;;;21.09;71.58;100137.27;3539843;81;98868;-88
2022/08/01 08:18:17;;;;;;;11.18;7.60;;;;;;;21.24;71.37;100141.72;3558739;81;98902;-87
2022/08/01 08:28:39;;;;;;;12.47;8.03;;;;;;;21.60;70.61;100153.96;3547360;81;99528;-84
2022/08/01 08:33:40;;;;;;;12.73;7.67;;;;;;;21.77;69.92;100152.53;3569199;81;98957;-85
2022/08/01 08:38:41;;;;;;;12.28;7.42;;;;;;;21.95;69.58;100154.00;3553339;81;31647;-82
2022/08/01 08:43:42;;;;;;;11.12;7.72;;;;;;;22.15;68.92;100148.80;3542346;81;98516;-84
2022/08/01 08:48:44;;;;;;;12.15;7.83;;;;;;;22.43;68.32;100152.45;3537843;81;98855;-84
2022/08/01 08:53:47;;;;;;;9.88;6.30;;;;;;;22.65;67.74;100151.13;3512415;81;99060;-84
2022/08/01 08:58:50;;;;;;;12.25;7.75;;;;;;;22.95;67.11;100143.19;3536824;81;98762;-83
2022/08/01 09:03:51;;;;;;;12.13;6.50;;;;;;;23.34;66.48;100151.32;3530914;81;99059;-82
2022/08/01 09:08:52;;;;;;;10.68;7.25;;;;;;;23.79;66.10;100153.41;3550774;81;98927;-86
2022/08/01 09:14:10;;;;;;;8.80;6.62;;;;;;;24.11;64.33;100158.94;3555420;81;98468;-84
2022/08/01 09:19:19;;;;;;;12.10;6.80;;;;;;;24.58;64.01;100158.39;3575317;81;98663;-84
2022/08/01 09:24:21;;;;;;;13.55;6.83;;;;;;;25.22;63.65;100153.08;3571395;81;98855;-84
2022/08/01 09:29:27;;;;;;;9.68;6.28;;;;;;;26.00;62.26;100148.36;3578228;79;98976;-83
2022/08/01 09:34:34;;;;;;;9.43;5.40;;;;;;;26.93;60.73;100153.20;3540494;81;98918;-83
2022/08/01 09:39:42;;;;;;;11.33;5.60;;;;;;;27.77;58.73;100140.86;3547140;81;98863;-84
2022/08/01 09:44:44;;;;;;;9.73;5.05;;;;;;;28.40;57.95;100146.64;3553736;79;99550;-81
2022/08/01 09:49:45;;;;;;;11.77;5.30;;;;;;;29.20;57.20;100142.42;3532521;81;98542;-81
2022/08/01 09:54:56;;;;;;;5.97;3.40;;;;;;;30.05;55.54;100144.34;3532185;80;98812;-83
2022/08/01 10:00:00;;;;;;;4.47;2.67;;;;;;;30.54;52.61;100134.98;3568085;80;98775;-83
2022/08/01 10:05:05;;;;;;;5.40;3.17;;;;;;;30.98;51.32;100128.37;3557206;80;98740;-83
2022/08/01 10:10:13;;;;;;;6.33;2.70;;;;;;;31.25;50.00;100133.17;3542693;80;98907;-83
2022/08/01 10:15:16;;;;;;;5.62;2.60;;;;;;;31.79;49.37;100130.62;3564711;80;98887;-84
2022/08/01 10:20:21;;;;;;;3.20;2.00;;;;;;;32.58;47.68;100122.99;3521406;81;98460;-83
2022/08/01 10:25:24;;;;;;;6.25;2.65;;;;;;;32.82;46.75;100130.14;3526289;81;98698;-87
2022/08/01 10:30:26;;;;;;;3.23;1.87;;;;;;;33.22;46.52;100122.58;3537961;80;99100;-84
2022/08/01 10:35:28;;;;;;;3.85;2.05;;;;;;;33.34;44.93;100129.05;3522895;81;98818;-86
2022/08/01 10:40:30;;;;;;;2.87;1.80;;;;;;;33.53;43.54;100113.33;3523077;81;98972;-85
2022/08/01 10:45:31;;;;;;;2.52;1.80;;;;;;;33.64;43.26;100120.30;3552688;80;98838;-85
2022/08/01 10:50:40;;;;;;;5.20;1.95;;;;;;;33.33;42.63;100116.09;3541143;81;98953;-83
2022/08/01 10:56:00;;;;;;;5.30;2.77;;;;;;;32.92;42.45;100119.12;3611238;80;97595;-82
2022/08/01 11:01:29;;;;;;;4.47;2.05;;;;;;;32.62;42.20;100117.77;3602018;80;98706;-84
2022/08/01 11:06:38;;;;;;;5.10;2.12;;;;;;;32.19;42.55;100128.95;3606134;80;98632;-82
2022/08/01 11:12:09;;;;;;;5.42;2.52;;;;;;;31.79;44.04;100147.70;3602149;80;98864;-83
2022/08/01 11:17:44;;;;;;;5.35;2.80;;;;;;;31.20;46.22;100156.08;3610341;80;98878;-82
2022/08/01 11:23:06;;;;;;;13.58;3.45;;;;;;;30.66;47.42;100157.05;3611937;80;99070;-87
2022/08/01 11:28:23;;;;;;;8.10;3.30;;;;;;;30.21;48.94;100159.83;3611637;80;99654;-86
2022/08/01 11:33:48;;;;;;;5.58;3.65;;;;;;;29.53;50.51;100148.16;3613942;80;98895;-87
2022/08/01 11:39:06;;;;;;;6.53;3.72;;;;;;;29.12;52.05;100147.80;3590787;81;98713;-85
2022/08/01 11:44:17;;;;;;;9.15;3.15;;;;;;;28.79;53.72;100144.82;3608509;80;98552;-85
2022/08/01 11:49:44;;;;;;;7.03;2.87;;;;;;;28.51;54.61;100148.78;3605450;80;98603;-86
2022/08/01 11:54:55;;;;;;;8.08;3.83;;;;;;;28.28;55.97;100147.83;3601105;80;99350;-85
2022/08/01 11:59:58;;;;;;;4.67;2.75;;;;;;;28.33;57.71;100138.60;3591816;80;98894;-84
2022/08/01 12:05:07;;;;;;;5.65;2.95;;;;;;;28.44;58.15;100139.36;3620007;80;98753;-87
2022/08/01 12:10:13;;;;;;;5.10;3.30;;;;;;;28.35;58.45;100138.89;3600504;80;98816;-82
2022/08/01 12:15:15;;;;;;;5.95;3.45;;;;;;;28.21;57.06;100140.45;3516561;81;98877;-84
2022/08/01 12:20:22;;;;;;;6.12;3.12;;;;;;;28.05;57.54;100139.06;3494676;81;98552;-82
2022/08/01 12:25:24;;;;;;;6.30;3.27;;;;;;;28.09;57.82;100143.06;3508473;81;97798;-84
2022/08/01 12:30:26;;;;;;;6.90;3.10;;;;;;;27.88;56.84;100144.44;3503227;81;98453;-87
2022/08/01 12:35:29;;;;;;;4.70;2.35;;;;;;;27.62;57.30;100141.63;3532796;81;98800;-84
2022/08/01 12:40:34;;;;;;;6.67;3.30;;;;;;;27.20;57.79;100141.44;3475449;82;99639;-80
2022/08/01 12:45:44;;;;;;;;;;;;;;;27.02;60.25;100146.63;3523831;81;98848;-81
2022/08/01 12:50:50;;;;;;;6.67;3.52;;;;;;;27.00;62.08;100151.97;3536334;81;84811;-81
2022/08/01 12:55:55;;;;;;;4.90;3.22;;;;;;;26.99;60.83;100153.25;3529730;81;29944;-81
2022/08/01 13:01:12;;;;;;;6.10;3.33;;;;;;;26.98;60.93;100146.05;3531656;81;98807;-82
2022/08/01 13:06:15;;;;;;;5.78;3.08;;;;;;;26.96;61.50;100147.95;3536011;81;98583;-82
2022/08/01 13:11:17;;;;;;;6.50;3.45;;;;;;;26.93;62.59;100150.38;3531280;81;98826;-82
2022/08/01 13:16:25;;;;;;;8.73;3.40;;;;;;;26.90;62.58;100158.41;3532627;82;98948;-81
2022/08/01 13:21:30;;;;;;;8.63;3.77;;;;;;;26.62;62.67;100177.04;3503365;82;98898;-82
2022/08/01 13:26:47;;;;;;;;;;;;;;;26.44;63.18;100176.48;3461011;83;26569;-84
2022/08/01 13:31:48;;;;;;;7.10;3.37;;;;;;;26.33;64.16;100170.67;3522457;81;85059;-82
2022/08/01 13:36:49;;;;;;;6.55;3.65;;;;;;;26.24;64.49;100172.20;3529608;82;99174;-82
2022/08/01 13:41:50;;;;;;;7.92;3.80;;;;;;;26.35;65.28;100172.36;3545625;81;99328;-83
2022/08/01 13:46:52;;;;;;;8.08;4.17;;;;;;;26.50;66.39;100172.48;3562717;81;99167;-85
2022/08/01 13:51:53;;;;;;;9.73;4.30;;;;;;;26.65;66.83;100169.63;3559255;81;98843;-84
2022/08/01 13:56:54;;;;;;;6.85;4.10;;;;;;;26.84;67.23;100166.04;3566323;81;98981;-82
2022/08/01 14:01:55;;;;;;;10.35;4.78;;;;;;;26.91;66.74;100164.84;3556313;81;98487;-81
2022/08/01 14:06:56;;;;;;;6.20;4.08;;;;;;;26.92;65.57;100169.22;3577658;81;98756;-84
2022/08/01 14:11:57;;;;;;;7.33;4.40;;;;;;;26.87;65.50;100174.92;3563110;81;98934;-82
2022/08/01 14:16:58;;;;;;;6.17;3.42;;;;;;;26.81;65.41;100181.13;3541984;81;99260;-81
2022/08/01 14:21:59;;;;;;;5.40;3.85;;;;;;;26.73;64.85;100186.28;3576275;81;98825;-81
2022/08/01 14:27:00;;;;;;;7.37;3.35;;;;;;;26.59;64.33;100186.48;3575684;81;98829;-82
2022/08/01 14:32:01;;;;;;;5.78;3.20;;;;;;;26.49;64.49;100199.13;3576318;81;98777;-81
2022/08/01 14:37:02;;;;;;;7.30;3.17;;;;;;;26.38;64.58;100202.44;3566378;81;98673;-82
2022/08/01 14:42:03;;;;;;;5.37;3.17;;;;;;;26.34;64.66;100201.23;3612417;80;98834;-83
2022/08/01 14:47:05;;;;;;;4.58;2.80;;;;;;;26.29;64.73;100204.74;3620888;80;98844;-85
2022/08/01 14:52:06;;;;;;;5.28;3.05;;;;;;;26.33;64.67;100207.36;3610216;80;98770;-85
2022/08/01 14:57:08;;;;;;;6.30;2.83;;;;;;;26.32;64.28;100217.09;3612519;80;98894;-86
2022/08/01 15:02:10;;;;;;;6.03;3.33;;;;;;;26.39;64.10;100223.12;3571510;80;98516;-87
2022/08/01 15:07:11;;;;;;;6.12;3.35;;;;;;;26.43;63.21;100225.09;3532517;81;99101;-84
2022/08/01 15:12:12;;;;;;;6.85;3.58;;;;;;;26.48;62.99;100216.58;3524077;81;99194;-85
2022/08/01 15:17:18;;;;;;;4.80;2.80;;;;;;;26.54;62.74;100225.25;3562115;82;98764;-88
2022/08/01 15:22:22;;;;;;;4.00;2.15;;;;;;;26.60;62.40;100228.96;3483067;83;98797;-84
2022/08/01 15:27:24;;;;;;;3.55;2.15;;;;;;;26.70;61.56;100227.58;3512925;82;98877;-85
2022/08/01 15:32:25;;;;;;;5.20;2.80;;;;;;;26.70;61.06;100231.05;3573143;81;98793;-84
2022/08/01 15:37:26;;;;;;;4.50;3.10;;;;;;;26.78;60.69;100239.23;3569695;81;98649;-87
2022/08/01 15:42:27;;;;;;;5.87;2.75;;;;;;;26.82;60.32;100239.81;3539902;81;99162;-81
2022/08/01 15:47:28;;;;;;;4.47;2.30;;;;;;;26.77;60.53;100246.95;3480948;83;98808;-84
2022/08/01 15:52:29;;;;;;;3.72;2.67;;;;;;;26.74;60.75;100249.95;3491018;82;98918;-84
2022/08/01 15:57:30;;;;;;;4.10;2.50;;;;;;;26.68;60.95;100253.33;3602647;81;98830;-86
2022/08/01 16:02:31;;;;;;;5.83;2.37;;;;;;;26.62;61.06;100253.27;3626779;80;98457;-84
2022/08/01 16:07:32;;;;;;;7.37;2.42;;;;;;;26.55;60.79;100257.91;3627067;80;98659;-84
2022/08/01 16:12:33;;;;;;;5.05;2.20;;;;;;;26.45;60.59;100251.41;3621417;80;98687;-87
2022/08/01 16:17:34;;;;;;;3.70;2.37;;;;;;;26.32;60.46;100260.19;3611408;80;98794;-84
2022/08/01 16:22:35;;;;;;;6.80;2.83;;;;;;;26.28;60.55;100261.04;3583370;80;99053;-83
2022/08/01 16:27:36;;;;;;;6.17;3.10;;;;;;;26.27;60.17;100258.05;3574297;81;99001;-85
2022/08/01 16:32:37;;;;;;;3.62;2.42;;;;;;;26.24;60.18;100273.14;3564609;81;98482;-82
2022/08/01 16:37:39;;;;;;;4.70;3.12;;;;;;;26.25;60.13;100273.28;3567169;81;98494;-81
2022/08/01 16:42:40;;;;;;;5.22;2.85;;;;;;;26.23;59.73;100272.22;3569594;81;98593;-82
2022/08/01 16:47:41;;;;;;;6.30;3.40;;;;;;;26.18;59.75;100282.15;3581721;81;98855;-83
2022/08/01 16:52:43;;;;;;;5.00;2.92;;;;;;;26.10;59.86;100278.15;3577519;80;99091;-85
2022/08/01 16:57:44;;;;;;;4.50;2.85;;;;;;;26.09;59.91;100277.22;3552017;81;98840;-81
2022/08/01 17:02:45;;;;;;;5.05;2.80;;;;;;;26.06;59.96;100278.20;3566254;81;98418;-81
2022/08/01 17:07:46;;;;;;;4.97;3.10;;;;;;;26.06;60.16;100279.00;3582818;81;32463;-80
2022/08/01 17:12:47;;;;;;;7.05;3.72;;;;;;;26.03;60.35;100278.55;3574426;81;99030;-81
2022/08/01 17:17:50;;;;;;;7.85;3.58;;;;;;;25.94;59.96;100285.67;3595527;81;99204;-80
2022/08/01 17:22:51;;;;;;;6.50;3.75;;;;;;;25.87;59.96;100293.09;3607388;80;98912;-80
2022/08/01 17:27:52;;;;;;;5.00;2.92;;;;;;;25.78;59.90;100289.58;3632726;80;98872;-80
2022/08/01 17:32:53;;;;;;;4.80;3.10;;;;;;;25.66;59.78;100296.27;3612974;79;99168;-80
2022/08/01 17:37:54;;;;;;;5.53;3.22;;;;;;;25.56;60.07;100304.00;3629349;79;32395;-82
2022/08/01 17:42:55;;;;;;;4.85;3.08;;;;;;;25.43;60.18;100311.94;3635043;79;98723;-80
2022/08/01 17:47:56;;;;;;;6.37;3.37;;;;;;;25.35;60.66;100305.75;3593036;80;98814;-80
2022/08/01 17:52:58;;;;;;;5.35;3.22;;;;;;;25.26;61.01;100312.23;3590847;80;98789;-80
2022/08/01 17:57:59;;;;;;;5.05;3.40;;;;;;;25.18;61.30;100323.66;3527293;82;98860;-81
2022/08/01 18:03:01;;;;;;;4.70;2.90;;;;;;;25.05;61.41;100325.94;3575320;81;98796;-81
2022/08/01 18:08:03;;;;;;;6.87;2.85;;;;;;;24.89;61.87;100330.55;3627689;80;33099;-80
2022/08/01 18:13:04;;;;;;;5.28;3.27;;;;;;;24.76;62.12;100330.61;3624598;80;98934;-80
2022/08/01 18:18:06;;;;;;;5.43;2.83;;;;;;;24.68;62.30;100332.98;3646281;79;98849;-80
2022/08/01 18:23:09;;;;;;;6.08;2.70;;;;;;;24.56;62.54;100331.75;3563841;81;98900;-80
2022/08/01 18:28:10;;;;;;;4.85;3.00;;;;;;;24.48;62.79;100334.14;3623716;80;99204;-80
2022/08/01 18:33:11;;;;;;;6.35;3.27;;;;;;;24.41;62.88;100339.32;3553234;81;98337;-80
2022/08/01 18:38:12;;;;;;;3.55;2.60;;;;;;;24.31;63.07;100339.95;3633537;79;32469;-80
2022/08/01 18:43:13;;;;;;;5.00;2.55;;;;;;;24.16;63.35;100356.55;3600292;80;98588;-80
2022/08/01 18:48:14;;;;;;;3.25;2.45;;;;;;;24.05;63.87;100349.22;3556785;81;98570;-80
2022/08/01 18:53:15;;;;;;;5.05;3.25;;;;;;;23.92;64.49;100358.45;3631184;79;98749;-80
2022/08/01 18:58:16;;;;;;;5.92;3.62;;;;;;;23.70;64.94;100373.27;3642226;79;98716;-79
2022/08/01 19:03:19;;;;;;;8.30;4.45;;;;;;;23.59;65.25;100377.92;3589222;80;98795;-82
2022/08/01 19:08:20;;;;;;;6.62;4.08;;;;;;;;;;3605939;80;32453;-80
2022/08/01 19:13:20;;;;;;;8.28;4.22;;;;;;;23.35;66.16;100380.38;3627036;79;71586;-79
2022/08/01 19:18:23;;;;;;;8.33;5.10;;;;;;;23.21;66.45;100389.40;3642783;79;98618;-81
2022/08/01 19:28:46;;;;;;;9.83;5.42;;;;;;;23.01;66.97;100396.00;3589055;80;99162;-80
2022/08/01 19:33:47;;;;;;;7.58;4.83;;;;;;;22.88;67.48;100405.92;3616671;79;98814;-80
2022/08/01 19:38:49;;;;;;;8.23;4.20;;;;;;;22.79;67.97;100410.71;3634867;80;98709;-80
2022/08/01 19:43:51;;;;;;;8.80;4.97;;;;;;;22.68;68.25;100414.55;3609446;81;98555;-81
2022/08/01 19:48:52;;;;;;;8.05;4.78;;;;;;;22.57;68.55;100415.58;3594536;80;98593;-81
2022/08/01 19:53:54;;;;;;;7.97;5.25;;;;;;;22.49;68.99;100412.26;3621549;80;98870;-81
2022/08/01 19:58:57;;;;;;;9.38;5.92;;;;;;;22.40;69.27;100419.17;3616990;80;99137;-80
2022/08/01 20:04:03;;;;;;;7.05;5.03;;;;;;;22.29;70.35;100420.19;3583057;79;98848;-81
2022/08/01 20:09:04;;;;;;;10.25;4.72;;;;;;;22.23;70.35;100424.05;3581829;81;99176;-82
2022/08/01 20:14:05;;;;;;;8.78;5.30;;;;;;;22.18;70.70;100428.84;3609851;80;100199;-81
2022/08/01 20:19:06;;;;;;;8.35;5.12;;;;;;;22.14;70.91;100424.77;3542562;80;98811;-80
2022/08/01 20:24:12;;;;;;;9.80;5.17;;;;;;;22.11;71.26;100435.47;3544578;81;98673;-80
2022/08/01 20:29:16;;;;;;;8.88;4.70;;;;;;;22.06;71.51;100445.09;3532584;81;98772;-80
2022/08/01 20:34:22;;;;;;;8.05;5.35;;;;;;;22.02;71.86;100449.40;3517440;82;98817;-80
2022/08/01 20:39:23;;;;;;;7.75;4.97;;;;;;;21.99;72.15;100448.92;3532171;81;99234;-81
2022/08/01 20:44:25;;;;;;;10.70;5.35;;;;;;;21.96;72.30;100448.41;3593948;80;98575;-80
2022/08/01 20:49:29;;;;;;;6.60;4.15;;;;;;;21.96;72.62;100454.66;3604097;80;99245;-80
2022/08/01 20:54:30;;;;;;;7.40;5.08;;;;;;;21.93;72.47;100446.53;3593582;80;98852;-80
2022/08/01 20:59:45;;;;;;;7.97;5.20;;;;;;;21.91;72.70;100446.19;3591017;81;98866;-80
2022/08/01 21:05:10;;;;;;;9.10;4.47;;;;;;;21.91;72.84;100449.63;3603093;81;98784;-80
2022/08/01 21:10:15;;;;;;;7.17;4.78;;;;;;;21.86;72.96;100453.77;3566317;81;98894;-82
2022/08/01 21:15:30;;;;;;;7.80;4.65;;;;;;;21.85;73.14;100455.01;3564600;81;98867;-80
2022/08/01 21:20:34;;;;;;;9.53;5.40;;;;;;;21.83;73.18;100459.50;3577643;80;98391;-81
2022/08/01 21:25:35;;;;;;;8.90;4.80;;;;;;;21.79;73.36;100466.63;3570654;81;98665;-81
2022/08/01 21:30:37;;;;;;;9.28;4.55;;;;;;;21.79;73.65;100475.67;3605973;79;98640;-82
2022/08/01 21:35:39;;;;;;;8.80;5.08;;;;;;;21.78;73.84;100481.08;3602281;80;99043;-82
2022/08/01 21:40:43;;;;;;;11.48;4.92;;;;;;;21.79;73.96;100489.67;3559140;81;98832;-80
2022/08/01 21:45:48;;;;;;;7.78;5.30;;;;;;;21.78;74.17;100495.89;3540839;81;98947;-80
2022/08/01 21:50:57;;;;;;;8.75;4.90;;;;;;;21.75;74.11;100500.98;3591879;80;98498;-80
2022/08/01 21:56:06;;;;;;;6.67;4.65;;;;;;;21.72;74.26;100507.50;3573196;81;32493;-80
2022/08/01 22:01:15;;;;;;;8.05;5.28;;;;;;;21.73;74.32;100516.67;3601772;80;98687;-80
2022/08/01 22:06:19;;;;;;;7.65;4.80;;;;;;;21.71;74.68;100522.74;3572329;80;98765;-81
2022/08/01 22:11:26;;;;;;;10.48;4.85;;;;;;;21.70;74.76;100525.98;3480646;82;99234;-80
2022/08/01 22:16:30;;;;;;;8.45;4.62;;;;;;;21.69;74.93;100527.23;3553162;81;99405;-80
2022/08/01 22:21:31;;;;;;;7.75;4.95;;;;;;;21.68;75.05;100533.44;3688552;78;98764;-80
2022/08/01 22:26:36;;;;;;;10.63;5.03;;;;;;;21.67;75.03;100532.45;3666527;79;32390;-81
2022/08/01 22:31:37;;;;;;;9.43;5.80;;;;;;;21.65;75.25;100531.52;3650166;79;99112;-81
2022/08/01 22:36:38;;;;;;;9.78;5.33;;;;;;;21.65;75.27;100540.52;3659536;79;98649;-81
2022/08/01 22:41:45;;;;;;;11.12;5.83;;;;;;;21.63;75.29;100540.20;3657880;79;98767;-80
2022/08/01 22:47:03;;;;;;;7.97;5.15;;;;;;;21.61;75.22;100542.05;3648676;79;98991;-82
2022/08/01 22:52:17;;;;;;;8.45;4.95;;;;;;;21.59;75.46;100540.92;3645159;79;98840;-82
2022/08/01 22:57:30;;;;;;;6.97;5.20;;;;;;;21.55;75.31;100548.65;3642302;79;99204;-80
2022/08/01 23:02:49;;;;;;;8.08;5.28;;;;;;;21.53;75.52;100547.69;3622440;79;98902;-81
2022/08/01 23:07:53;;;;;;;7.35;4.80;;;;;;;21.51;75.45;100549.37;3652917;79;32534;-81
2022/08/01 23:12:55;;;;;;;8.53;4.42;;;;;;;21.48;75.42;100549.64;3640959;79;98593;-81
2022/08/01 23:17:57;;;;;;;7.60;4.70;;;;;;;21.47;75.18;100547.31;3640706;79;99250;-81
2022/08/01 23:22:59;;;;;;;7.22;4.58;;;;;;;21.41;75.01;100544.27;3662852;79;98881;-80
2022/08/01 23:28:02;;;;;;;7.05;4.37;;;;;;;21.38;74.70;100554.98;3666906;79;98843;-81
2022/08/01 23:33:03;;;;;;;6.97;4.40;;;;;;;21.36;75.00;100558.83;3651985;79;98960;-81
2022/08/01 23:38:05;;;;;;;10.50;5.30;;;;;;;21.34;75.21;100562.70;3672641;79;32779;-81
2022/08/01 23:43:07;;;;;;;7.25;4.10;;;;;;;21.30;74.99;100559.22;3655335;79;98876;-80